sensor_id;sensor_type;location;lat;lon;timestamp;P1;durP1;ratioP1;P2;durP2;ratioP2
7199;SDS011;3641;49.082;8.200;2023-01-13T00:01:36;2.20;;;0.80;;
7199;SDS011;3641;49.082;8.200;2023-01-13T00:04:03;3.53;;;0.70;;
7199;SDS011;3641;49.082;8.200;2023-01-13T00:06:30;3.25;;;0.80;;
7199;SDS011;3641;49.082;8.200;2023-01-13T00:08:56;3.97;;;1.00;;
7199;SDS011;3641;49.082;8.200;2023-01-13T00:11:23;3.08;;;0.70;;
7199;SDS011;3641;49.082;8.200;2023-01-13T00:13:51;4.60;;;0.82;;
7199;SDS011;3641;49.082;8.200;2023-01-13T00:16:18;2.85;;;0.82;;
7199;SDS011;3641;49.082;8.200;2023-01-13T00:18:45;3.25;;;0.85;;
7199;SDS011;3641;49.082;8.200;2023-01-13T00:21:13;3.00;;;0.73;;
7199;SDS011;3641;49.082;8.200;2023-01-13T00:23:40;2.25;;;0.77;;
7199;SDS011;3641;49.082;8.200;2023-01-13T00:26:08;3.05;;;0.70;;
7199;SDS011;3641;49.082;8.200;2023-01-13T00:28:36;4.05;;;0.73;;
7199;SDS011;3641;49.082;8.200;2023-01-13T00:31:05;3.97;;;0.80;;
7199;SDS011;3641;49.082;8.200;2023-01-13T00:33:34;5.20;;;0.88;;
7199;SDS011;3641;49.082;8.200;2023-01-13T00:36:00;3.30;;;0.75;;
7199;SDS011;3641;49.082;8.200;2023-01-13T00:38:29;3.17;;;0.82;;
7199;SDS011;3641;49.082;8.200;2023-01-13T00:40:56;11.20;;;1.20;;
7199;SDS011;3641;49.082;8.200;2023-01-13T00:43:23;4.30;;;0.80;;
7199;SDS011;3641;49.082;8.200;2023-01-13T00:45:49;4.32;;;0.77;;
7199;SDS011;3641;49.082;8.200;2023-01-13T00:48:18;1.95;;;0.63;;
7199;SDS011;3641;49.082;8.200;2023-01-13T00:50:45;4.95;;;0.70;;
7199;SDS011;3641;49.082;8.200;2023-01-13T00:53:12;4.60;;;0.80;;
7199;SDS011;3641;49.082;8.200;2023-01-13T00:55:40;2.45;;;0.70;;
7199;SDS011;3641;49.082;8.200;2023-01-13T00:58:06;4.07;;;0.73;;
7199;SDS011;3641;49.082;8.200;2023-01-13T01:00:33;3.70;;;0.70;;
7199;SDS011;3641;49.082;8.200;2023-01-13T01:02:59;1.77;;;0.63;;
7199;SDS011;3641;49.082;8.200;2023-01-13T01:05:27;2.50;;;0.60;;
7199;SDS011;3641;49.082;8.200;2023-01-13T01:07:53;4.15;;;0.90;;
7199;SDS011;3641;49.082;8.200;2023-01-13T01:10:20;3.42;;;0.70;;
7199;SDS011;3641;49.082;8.200;2023-01-13T01:12:46;3.70;;;0.95;;
7199;SDS011;3641;49.082;8.200;2023-01-13T01:15:14;3.65;;;0.65;;
7199;SDS011;3641;49.082;8.200;2023-01-13T01:17:41;1.83;;;0.60;;
7199;SDS011;3641;49.082;8.200;2023-01-13T01:20:08;2.95;;;0.75;;
7199;SDS011;3641;49.082;8.200;2023-01-13T01:22:37;2.53;;;0.75;;
7199;SDS011;3641;49.082;8.200;2023-01-13T01:25:04;2.35;;;0.68;;
7199;SDS011;3641;49.082;8.200;2023-01-13T01:27:31;3.70;;;0.70;;
7199;SDS011;3641;49.082;8.200;2023-01-13T01:29:57;3.00;;;0.80;;
7199;SDS011;3641;49.082;8.200;2023-01-13T01:32:24;6.60;;;0.95;;
7199;SDS011;3641;49.082;8.200;2023-01-13T01:34:50;3.67;;;0.82;;
7199;SDS011;3641;49.082;8.200;2023-01-13T01:37:17;6.30;;;1.45;;
7199;SDS011;3641;49.082;8.200;2023-01-13T01:39:45;3.47;;;0.77;;
7199;SDS011;3641;49.082;8.200;2023-01-13T01:42:12;2.15;;;0.68;;
7199;SDS011;3641;49.082;8.200;2023-01-13T01:44:59;4.65;;;0.90;;
7199;SDS011;3641;49.082;8.200;2023-01-13T01:47:27;2.72;;;0.80;;
7199;SDS011;3641;49.082;8.200;2023-01-13T01:49:56;2.88;;;0.80;;
7199;SDS011;3641;49.082;8.200;2023-01-13T01:52:25;4.03;;;0.95;;
7199;SDS011;3641;49.082;8.200;2023-01-13T01:54:57;4.72;;;0.70;;
7199;SDS011;3641;49.082;8.200;2023-01-13T01:57:29;2.72;;;0.88;;
7199;SDS011;3641;49.082;8.200;2023-01-13T02:00:01;6.63;;;1.02;;
7199;SDS011;3641;49.082;8.200;2023-01-13T02:02:28;3.88;;;0.80;;
7199;SDS011;3641;49.082;8.200;2023-01-13T02:04:55;5.97;;;0.93;;
7199;SDS011;3641;49.082;8.200;2023-01-13T02:07:24;4.63;;;0.98;;
7199;SDS011;3641;49.082;8.200;2023-01-13T02:09:54;3.25;;;0.80;;
7199;SDS011;3641;49.082;8.200;2023-01-13T02:12:23;1.80;;;0.75;;
7199;SDS011;3641;49.082;8.200;2023-01-13T02:14:56;4.45;;;0.80;;
7199;SDS011;3641;49.082;8.200;2023-01-13T02:17:30;2.08;;;0.70;;
7199;SDS011;3641;49.082;8.200;2023-01-13T02:20:43;7.60;;;0.80;;
7199;SDS011;3641;49.082;8.200;2023-01-13T02:30:16;2.67;;;0.80;;
7199;SDS011;3641;49.082;8.200;2023-01-13T02:33:16;2.45;;;0.77;;
7199;SDS011;3641;49.082;8.200;2023-01-13T02:35:51;3.53;;;0.80;;
7199;SDS011;3641;49.082;8.200;2023-01-13T02:38:26;3.95;;;0.85;;
7199;SDS011;3641;49.082;8.200;2023-01-13T02:40:57;2.08;;;0.80;;
7199;SDS011;3641;49.082;8.200;2023-01-13T02:43:49;6.25;;;0.80;;
7199;SDS011;3641;49.082;8.200;2023-01-13T02:46:36;2.00;;;0.73;;
7199;SDS011;3641;49.082;8.200;2023-01-13T02:49:10;2.22;;;0.82;;
7199;SDS011;3641;49.082;8.200;2023-01-13T02:51:42;3.08;;;0.70;;
7199;SDS011;3641;49.082;8.200;2023-01-13T02:54:11;2.65;;;0.73;;
7199;SDS011;3641;49.082;8.200;2023-01-13T02:56:43;2.60;;;0.60;;
7199;SDS011;3641;49.082;8.200;2023-01-13T02:59:14;1.77;;;0.70;;
7199;SDS011;3641;49.082;8.200;2023-01-13T03:01:44;1.85;;;0.70;;
7199;SDS011;3641;49.082;8.200;2023-01-13T03:04:13;3.50;;;0.65;;
7199;SDS011;3641;49.082;8.200;2023-01-13T03:07:00;1.55;;;0.70;;
7199;SDS011;3641;49.082;8.200;2023-01-13T03:09:37;3.85;;;0.73;;
7199;SDS011;3641;49.082;8.200;2023-01-13T03:12:09;3.67;;;0.77;;
7199;SDS011;3641;49.082;8.200;2023-01-13T03:14:41;1.73;;;0.75;;
7199;SDS011;3641;49.082;8.200;2023-01-13T03:17:19;2.10;;;0.60;;
7199;SDS011;3641;49.082;8.200;2023-01-13T03:19:53;4.82;;;0.73;;
7199;SDS011;3641;49.082;8.200;2023-01-13T03:22:25;3.85;;;0.80;;
7199;SDS011;3641;49.082;8.200;2023-01-13T03:24:59;3.55;;;0.63;;
7199;SDS011;3641;49.082;8.200;2023-01-13T03:27:31;4.07;;;0.70;;
7199;SDS011;3641;49.082;8.200;2023-01-13T03:30:04;2.08;;;0.52;;
7199;SDS011;3641;49.082;8.200;2023-01-13T03:32:37;2.03;;;0.80;;
7199;SDS011;3641;49.082;8.200;2023-01-13T03:35:08;2.40;;;0.70;;
7199;SDS011;3641;49.082;8.200;2023-01-13T03:37:42;3.20;;;0.75;;
7199;SDS011;3641;49.082;8.200;2023-01-13T03:40:14;3.67;;;0.60;;
7199;SDS011;3641;49.082;8.200;2023-01-13T03:42:45;4.55;;;0.70;;
7199;SDS011;3641;49.082;8.200;2023-01-13T03:45:27;2.42;;;0.63;;
7199;SDS011;3641;49.082;8.200;2023-01-13T03:47:58;3.35;;;0.73;;
7199;SDS011;3641;49.082;8.200;2023-01-13T03:50:30;1.70;;;0.70;;
7199;SDS011;3641;49.082;8.200;2023-01-13T03:53:04;1.73;;;0.60;;
7199;SDS011;3641;49.082;8.200;2023-01-13T03:55:36;1.23;;;0.50;;
7199;SDS011;3641;49.082;8.200;2023-01-13T03:58:08;2.80;;;0.70;;
7199;SDS011;3641;49.082;8.200;2023-01-13T04:00:39;3.90;;;0.80;;
7199;SDS011;3641;49.082;8.200;2023-01-13T04:03:10;2.38;;;0.60;;
7199;SDS011;3641;49.082;8.200;2023-01-13T04:05:43;3.35;;;0.68;;
7199;SDS011;3641;49.082;8.200;2023-01-13T04:08:17;2.88;;;0.40;;
7199;SDS011;3641;49.082;8.200;2023-01-13T04:10:48;2.50;;;0.80;;
7199;SDS011;3641;49.082;8.200;2023-01-13T04:13:18;4.38;;;0.68;;
7199;SDS011;3641;49.082;8.200;2023-01-13T04:15:48;4.05;;;0.80;;
7199;SDS011;3641;49.082;8.200;2023-01-13T04:18:17;3.67;;;0.47;;
7199;SDS011;3641;49.082;8.200;2023-01-13T04:20:47;2.72;;;0.65;;
7199;SDS011;3641;49.082;8.200;2023-01-13T04:23:15;2.00;;;0.60;;
7199;SDS011;3641;49.082;8.200;2023-01-13T04:25:43;2.80;;;0.88;;
7199;SDS011;3641;49.082;8.200;2023-01-13T04:28:10;2.75;;;0.50;;
7199;SDS011;3641;49.082;8.200;2023-01-13T04:30:37;0.77;;;0.40;;
7199;SDS011;3641;49.082;8.200;2023-01-13T04:33:04;2.00;;;0.55;;
7199;SDS011;3641;49.082;8.200;2023-01-13T04:35:32;0.98;;;0.50;;
7199;SDS011;3641;49.082;8.200;2023-01-13T04:37:59;2.72;;;0.60;;
7199;SDS011;3641;49.082;8.200;2023-01-13T04:40:26;0.88;;;0.50;;
7199;SDS011;3641;49.082;8.200;2023-01-13T04:42:53;4.00;;;0.68;;
7199;SDS011;3641;49.082;8.200;2023-01-13T04:45:19;5.00;;;0.93;;
7199;SDS011;3641;49.082;8.200;2023-01-13T04:47:45;1.75;;;0.60;;
7199;SDS011;3641;49.082;8.200;2023-01-13T04:50:12;2.55;;;0.70;;
7199;SDS011;3641;49.082;8.200;2023-01-13T04:52:44;0.98;;;0.43;;
7199;SDS011;3641;49.082;8.200;2023-01-13T04:55:11;1.83;;;0.50;;
7199;SDS011;3641;49.082;8.200;2023-01-13T04:57:37;1.95;;;0.50;;
7199;SDS011;3641;49.082;8.200;2023-01-13T05:00:04;1.95;;;0.45;;
7199;SDS011;3641;49.082;8.200;2023-01-13T05:02:32;3.25;;;0.80;;
7199;SDS011;3641;49.082;8.200;2023-01-13T05:04:59;3.72;;;0.55;;
7199;SDS011;3641;49.082;8.200;2023-01-13T05:07:25;2.15;;;0.90;;
7199;SDS011;3641;49.082;8.200;2023-01-13T05:09:53;1.40;;;0.47;;
7199;SDS011;3641;49.082;8.200;2023-01-13T05:12:19;2.00;;;0.60;;
7199;SDS011;3641;49.082;8.200;2023-01-13T05:15:04;2.88;;;0.70;;
7199;SDS011;3641;49.082;8.200;2023-01-13T05:17:49;1.90;;;0.55;;
7199;SDS011;3641;49.082;8.200;2023-01-13T05:20:15;2.97;;;0.90;;
7199;SDS011;3641;49.082;8.200;2023-01-13T05:22:42;1.98;;;0.55;;
7199;SDS011;3641;49.082;8.200;2023-01-13T05:25:28;1.25;;;0.55;;
7199;SDS011;3641;49.082;8.200;2023-01-13T05:27:55;1.60;;;0.60;;
7199;SDS011;3641;49.082;8.200;2023-01-13T05:30:24;2.30;;;0.52;;
7199;SDS011;3641;49.082;8.200;2023-01-13T05:32:52;1.80;;;0.50;;
7199;SDS011;3641;49.082;8.200;2023-01-13T05:35:19;4.03;;;1.48;;
7199;SDS011;3641;49.082;8.200;2023-01-13T05:37:45;1.55;;;0.63;;
7199;SDS011;3641;49.082;8.200;2023-01-13T05:40:13;2.38;;;0.55;;
7199;SDS011;3641;49.082;8.200;2023-01-13T05:43:12;1.60;;;0.50;;
7199;SDS011;3641;49.082;8.200;2023-01-13T05:45:46;3.80;;;0.50;;
7199;SDS011;3641;49.082;8.200;2023-01-13T05:48:13;3.50;;;0.90;;
7199;SDS011;3641;49.082;8.200;2023-01-13T05:50:40;1.33;;;0.50;;
7199;SDS011;3641;49.082;8.200;2023-01-13T05:53:06;1.65;;;0.50;;
7199;SDS011;3641;49.082;8.200;2023-01-13T05:55:33;1.77;;;0.70;;
7199;SDS011;3641;49.082;8.200;2023-01-13T05:57:59;4.57;;;0.80;;
7199;SDS011;3641;49.082;8.200;2023-01-13T06:00:27;1.20;;;0.47;;
7199;SDS011;3641;49.082;8.200;2023-01-13T06:02:54;2.78;;;0.52;;
7199;SDS011;3641;49.082;8.200;2023-01-13T06:05:20;4.55;;;0.68;;
7199;SDS011;3641;49.082;8.200;2023-01-13T06:07:46;1.80;;;0.50;;
7199;SDS011;3641;49.082;8.200;2023-01-13T06:10:13;1.40;;;0.70;;
7199;SDS011;3641;49.082;8.200;2023-01-13T06:12:39;2.35;;;0.57;;
7199;SDS011;3641;49.082;8.200;2023-01-13T06:15:06;2.92;;;0.50;;
7199;SDS011;3641;49.082;8.200;2023-01-13T06:17:34;3.17;;;0.65;;
7199;SDS011;3641;49.082;8.200;2023-01-13T06:20:01;2.72;;;0.68;;
7199;SDS011;3641;49.082;8.200;2023-01-13T06:22:28;1.45;;;0.50;;
7199;SDS011;3641;49.082;8.200;2023-01-13T06:24:57;2.25;;;0.60;;
7199;SDS011;3641;49.082;8.200;2023-01-13T06:27:24;2.10;;;0.60;;
7199;SDS011;3641;49.082;8.200;2023-01-13T06:29:50;2.60;;;0.60;;
7199;SDS011;3641;49.082;8.200;2023-01-13T06:32:17;1.27;;;0.60;;
7199;SDS011;3641;49.082;8.200;2023-01-13T06:34:48;1.42;;;0.50;;
7199;SDS011;3641;49.082;8.200;2023-01-13T06:37:19;2.70;;;0.73;;
7199;SDS011;3641;49.082;8.200;2023-01-13T06:39:49;1.95;;;0.60;;
7199;SDS011;3641;49.082;8.200;2023-01-13T06:42:16;1.70;;;0.60;;
7199;SDS011;3641;49.082;8.200;2023-01-13T06:45:01;2.53;;;0.55;;
7199;SDS011;3641;49.082;8.200;2023-01-13T06:47:27;3.45;;;0.77;;
7199;SDS011;3641;49.082;8.200;2023-01-13T06:49:55;2.45;;;0.68;;
7199;SDS011;3641;49.082;8.200;2023-01-13T06:52:23;1.98;;;0.60;;
7199;SDS011;3641;49.082;8.200;2023-01-13T06:54:51;1.92;;;0.90;;
7199;SDS011;3641;49.082;8.200;2023-01-13T06:57:17;3.10;;;0.57;;
7199;SDS011;3641;49.082;8.200;2023-01-13T06:59:44;2.55;;;0.70;;
7199;SDS011;3641;49.082;8.200;2023-01-13T07:02:10;2.65;;;0.60;;
7199;SDS011;3641;49.082;8.200;2023-01-13T07:04:36;2.85;;;0.80;;
7199;SDS011;3641;49.082;8.200;2023-01-13T07:07:04;1.90;;;0.70;;
7199;SDS011;3641;49.082;8.200;2023-01-13T07:09:31;2.47;;;0.75;;
7199;SDS011;3641;49.082;8.200;2023-01-13T07:11:58;2.58;;;0.70;;
7199;SDS011;3641;49.082;8.200;2023-01-13T07:14:24;5.25;;;1.00;;
7199;SDS011;3641;49.082;8.200;2023-01-13T07:17:08;5.70;;;0.90;;
7199;SDS011;3641;49.082;8.200;2023-01-13T07:19:35;3.88;;;0.65;;
7199;SDS011;3641;49.082;8.200;2023-01-13T07:22:01;2.40;;;0.52;;
7199;SDS011;3641;49.082;8.200;2023-01-13T07:24:29;4.20;;;0.70;;
7199;SDS011;3641;49.082;8.200;2023-01-13T07:26:56;1.05;;;0.38;;
7199;SDS011;3641;49.082;8.200;2023-01-13T07:29:22;3.50;;;0.40;;
7199;SDS011;3641;49.082;8.200;2023-01-13T07:31:49;2.88;;;0.50;;
7199;SDS011;3641;49.082;8.200;2023-01-13T07:34:15;2.70;;;0.68;;
7199;SDS011;3641;49.082;8.200;2023-01-13T07:36:41;2.97;;;0.47;;
7199;SDS011;3641;49.082;8.200;2023-01-13T07:39:08;2.40;;;0.73;;
7199;SDS011;3641;49.082;8.200;2023-01-13T07:41:36;2.10;;;0.75;;
7199;SDS011;3641;49.082;8.200;2023-01-13T07:44:20;3.00;;;0.60;;
7199;SDS011;3641;49.082;8.200;2023-01-13T07:46:46;2.20;;;0.65;;
7199;SDS011;3641;49.082;8.200;2023-01-13T07:49:13;3.10;;;0.73;;
7199;SDS011;3641;49.082;8.200;2023-01-13T07:51:39;2.15;;;0.43;;
7199;SDS011;3641;49.082;8.200;2023-01-13T07:54:06;1.45;;;0.40;;
7199;SDS011;3641;49.082;8.200;2023-01-13T07:56:32;1.30;;;0.50;;
7199;SDS011;3641;49.082;8.200;2023-01-13T07:59:00;1.67;;;0.70;;
7199;SDS011;3641;49.082;8.200;2023-01-13T08:01:27;3.10;;;0.55;;
7199;SDS011;3641;49.082;8.200;2023-01-13T08:03:55;4.13;;;0.70;;
7199;SDS011;3641;49.082;8.200;2023-01-13T08:06:23;1.67;;;0.40;;
7199;SDS011;3641;49.082;8.200;2023-01-13T08:08:50;4.65;;;1.00;;
7199;SDS011;3641;49.082;8.200;2023-01-13T08:11:16;1.60;;;0.65;;
7199;SDS011;3641;49.082;8.200;2023-01-13T08:13:43;2.95;;;0.35;;
7199;SDS011;3641;49.082;8.200;2023-01-13T08:16:10;2.72;;;0.70;;
7199;SDS011;3641;49.082;8.200;2023-01-13T08:18:38;4.80;;;0.73;;
7199;SDS011;3641;49.082;8.200;2023-01-13T08:21:05;4.43;;;0.80;;
7199;SDS011;3641;49.082;8.200;2023-01-13T08:23:33;3.00;;;0.63;;
7199;SDS011;3641;49.082;8.200;2023-01-13T08:26:00;2.00;;;0.60;;
7199;SDS011;3641;49.082;8.200;2023-01-13T08:28:28;3.25;;;1.05;;
7199;SDS011;3641;49.082;8.200;2023-01-13T08:30:57;3.25;;;0.60;;
7199;SDS011;3641;49.082;8.200;2023-01-13T08:33:26;2.00;;;0.40;;
7199;SDS011;3641;49.082;8.200;2023-01-13T08:35:53;6.57;;;0.90;;
7199;SDS011;3641;49.082;8.200;2023-01-13T08:38:20;2.15;;;0.50;;
7199;SDS011;3641;49.082;8.200;2023-01-13T08:40:47;2.88;;;0.52;;
7199;SDS011;3641;49.082;8.200;2023-01-13T08:43:13;5.85;;;1.40;;
7199;SDS011;3641;49.082;8.200;2023-01-13T08:45:40;2.72;;;0.77;;
7199;SDS011;3641;49.082;8.200;2023-01-13T08:48:06;5.50;;;1.08;;
7199;SDS011;3641;49.082;8.200;2023-01-13T08:50:34;2.85;;;0.50;;
7199;SDS011;3641;49.082;8.200;2023-01-13T08:53:01;3.08;;;0.80;;
7199;SDS011;3641;49.082;8.200;2023-01-13T08:55:27;7.70;;;1.10;;
7199;SDS011;3641;49.082;8.200;2023-01-13T08:57:54;6.03;;;0.70;;
7199;SDS011;3641;49.082;8.200;2023-01-13T09:00:20;8.48;;;0.90;;
7199;SDS011;3641;49.082;8.200;2023-01-13T09:02:47;3.65;;;0.70;;
7199;SDS011;3641;49.082;8.200;2023-01-13T09:05:13;2.63;;;0.60;;
7199;SDS011;3641;49.082;8.200;2023-01-13T09:07:41;2.75;;;0.70;;
7199;SDS011;3641;49.082;8.200;2023-01-13T09:10:08;5.13;;;1.08;;
7199;SDS011;3641;49.082;8.200;2023-01-13T09:12:35;2.17;;;0.70;;
7199;SDS011;3641;49.082;8.200;2023-01-13T09:15:19;2.72;;;1.08;;
7199;SDS011;3641;49.082;8.200;2023-01-13T09:17:46;7.72;;;1.23;;
7199;SDS011;3641;49.082;8.200;2023-01-13T09:20:12;6.82;;;2.00;;
7199;SDS011;3641;49.082;8.200;2023-01-13T09:22:39;4.70;;;0.85;;
7199;SDS011;3641;49.082;8.200;2023-01-13T09:25:07;8.20;;;1.73;;
7199;SDS011;3641;49.082;8.200;2023-01-13T09:27:34;1.63;;;0.68;;
7199;SDS011;3641;49.082;8.200;2023-01-13T09:30:01;3.20;;;0.80;;
7199;SDS011;3641;49.082;8.200;2023-01-13T09:32:27;4.53;;;1.08;;
7199;SDS011;3641;49.082;8.200;2023-01-13T09:34:54;3.53;;;0.90;;
7199;SDS011;3641;49.082;8.200;2023-01-13T09:37:26;3.47;;;0.80;;
7199;SDS011;3641;49.082;8.200;2023-01-13T09:39:53;6.50;;;0.90;;
7199;SDS011;3641;49.082;8.200;2023-01-13T09:42:22;4.70;;;1.25;;
7199;SDS011;3641;49.082;8.200;2023-01-13T09:45:14;7.10;;;1.25;;
7199;SDS011;3641;49.082;8.200;2023-01-13T09:47:45;5.95;;;1.50;;
7199;SDS011;3641;49.082;8.200;2023-01-13T09:50:22;7.72;;;1.15;;
7199;SDS011;3641;49.082;8.200;2023-01-13T09:52:53;8.02;;;1.55;;
7199;SDS011;3641;49.082;8.200;2023-01-13T09:55:22;7.68;;;1.30;;
7199;SDS011;3641;49.082;8.200;2023-01-13T09:57:55;6.28;;;1.55;;
7199;SDS011;3641;49.082;8.200;2023-01-13T10:00:24;4.07;;;1.02;;
7199;SDS011;3641;49.082;8.200;2023-01-13T10:02:56;8.48;;;1.42;;
7199;SDS011;3641;49.082;8.200;2023-01-13T10:05:34;4.55;;;1.00;;
7199;SDS011;3641;49.082;8.200;2023-01-13T10:08:03;5.35;;;1.02;;
7199;SDS011;3641;49.082;8.200;2023-01-13T10:10:37;8.13;;;1.83;;
7199;SDS011;3641;49.082;8.200;2023-01-13T10:13:16;5.43;;;1.20;;
7199;SDS011;3641;49.082;8.200;2023-01-13T10:15:47;6.78;;;1.38;;
7199;SDS011;3641;49.082;8.200;2023-01-13T10:18:25;8.48;;;2.22;;
7199;SDS011;3641;49.082;8.200;2023-01-13T10:21:00;10.25;;;1.48;;
7199;SDS011;3641;49.082;8.200;2023-01-13T10:23:37;6.60;;;1.45;;
7199;SDS011;3641;49.082;8.200;2023-01-13T10:26:23;6.68;;;1.50;;
7199;SDS011;3641;49.082;8.200;2023-01-13T10:28:59;4.95;;;1.20;;
7199;SDS011;3641;49.082;8.200;2023-01-13T10:31:26;6.80;;;1.45;;
7199;SDS011;3641;49.082;8.200;2023-01-13T10:33:56;4.70;;;1.20;;
7199;SDS011;3641;49.082;8.200;2023-01-13T10:36:23;10.63;;;2.92;;
7199;SDS011;3641;49.082;8.200;2023-01-13T10:38:50;9.05;;;1.58;;
7199;SDS011;3641;49.082;8.200;2023-01-13T10:41:18;7.57;;;1.38;;
7199;SDS011;3641;49.082;8.200;2023-01-13T10:44:00;9.02;;;1.30;;
7199;SDS011;3641;49.082;8.200;2023-01-13T10:46:28;10.82;;;1.80;;
7199;SDS011;3641;49.082;8.200;2023-01-13T10:48:57;10.80;;;2.00;;
7199;SDS011;3641;49.082;8.200;2023-01-13T10:51:25;12.23;;;1.60;;
7199;SDS011;3641;49.082;8.200;2023-01-13T10:53:54;8.10;;;1.73;;
7199;SDS011;3641;49.082;8.200;2023-01-13T10:56:23;12.82;;;2.63;;
7199;SDS011;3641;49.082;8.200;2023-01-13T10:58:51;11.88;;;2.25;;
7199;SDS011;3641;49.082;8.200;2023-01-13T11:01:23;8.88;;;1.38;;
7199;SDS011;3641;49.082;8.200;2023-01-13T11:03:51;8.65;;;1.52;;
7199;SDS011;3641;49.082;8.200;2023-01-13T11:06:19;7.30;;;1.35;;
7199;SDS011;3641;49.082;8.200;2023-01-13T11:08:48;12.82;;;2.83;;
7199;SDS011;3641;49.082;8.200;2023-01-13T11:11:27;8.15;;;1.40;;
7199;SDS011;3641;49.082;8.200;2023-01-13T11:14:04;7.25;;;1.85;;
7199;SDS011;3641;49.082;8.200;2023-01-13T11:16:56;11.75;;;1.58;;
7199;SDS011;3641;49.082;8.200;2023-01-13T11:19:26;7.70;;;1.67;;
7199;SDS011;3641;49.082;8.200;2023-01-13T11:21:57;10.55;;;1.50;;
7199;SDS011;3641;49.082;8.200;2023-01-13T11:24:32;8.73;;;1.40;;
7199;SDS011;3641;49.082;8.200;2023-01-13T11:27:01;7.50;;;1.67;;
7199;SDS011;3641;49.082;8.200;2023-01-13T11:29:33;7.10;;;1.40;;
7199;SDS011;3641;49.082;8.200;2023-01-13T11:32:09;9.65;;;1.92;;
7199;SDS011;3641;49.082;8.200;2023-01-13T11:34:38;7.65;;;1.40;;
7199;SDS011;3641;49.082;8.200;2023-01-13T11:37:09;8.50;;;1.58;;
7199;SDS011;3641;49.082;8.200;2023-01-13T11:39:45;8.50;;;1.50;;
7199;SDS011;3641;49.082;8.200;2023-01-13T11:42:19;12.30;;;1.75;;
7199;SDS011;3641;49.082;8.200;2023-01-13T11:44:53;9.55;;;1.80;;
7199;SDS011;3641;49.082;8.200;2023-01-13T11:47:30;9.25;;;1.40;;
7199;SDS011;3641;49.082;8.200;2023-01-13T11:49:59;12.10;;;1.85;;
7199;SDS011;3641;49.082;8.200;2023-01-13T11:52:28;11.23;;;1.65;;
7199;SDS011;3641;49.082;8.200;2023-01-13T11:55:18;11.93;;;1.50;;
7199;SDS011;3641;49.082;8.200;2023-01-13T12:01:00;7.20;;;1.25;;
7199;SDS011;3641;49.082;8.200;2023-01-13T12:03:37;5.25;;;1.17;;
7199;SDS011;3641;49.082;8.200;2023-01-13T12:06:10;6.00;;;1.30;;
7199;SDS011;3641;49.082;8.200;2023-01-13T12:08:56;5.05;;;1.10;;
7199;SDS011;3641;49.082;8.200;2023-01-13T12:11:36;6.43;;;1.33;;
7199;SDS011;3641;49.082;8.200;2023-01-13T12:14:32;3.80;;;1.10;;
7199;SDS011;3641;49.082;8.200;2023-01-13T12:17:10;4.40;;;1.20;;
7199;SDS011;3641;49.082;8.200;2023-01-13T12:19:48;6.43;;;1.23;;
7199;SDS011;3641;49.082;8.200;2023-01-13T12:22:16;10.82;;;2.90;;
7199;SDS011;3641;49.082;8.200;2023-01-13T12:24:49;9.32;;;1.75;;
7199;SDS011;3641;49.082;8.200;2023-01-13T12:27:21;5.45;;;1.58;;
7199;SDS011;3641;49.082;8.200;2023-01-13T12:29:56;5.20;;;1.40;;
7199;SDS011;3641;49.082;8.200;2023-01-13T12:32:28;9.45;;;2.45;;
7199;SDS011;3641;49.082;8.200;2023-01-13T12:35:04;12.18;;;3.25;;
7199;SDS011;3641;49.082;8.200;2023-01-13T12:37:47;18.70;;;4.95;;
7199;SDS011;3641;49.082;8.200;2023-01-13T12:40:19;10.60;;;2.70;;
7199;SDS011;3641;49.082;8.200;2023-01-13T12:42:54;7.68;;;1.85;;
7199;SDS011;3641;49.082;8.200;2023-01-13T12:45:45;13.50;;;4.53;;
7199;SDS011;3641;49.082;8.200;2023-01-13T12:51:22;5.97;;;1.13;;
7199;SDS011;3641;49.082;8.200;2023-01-13T12:53:50;6.15;;;1.10;;
7199;SDS011;3641;49.082;8.200;2023-01-13T13:04:59;6.57;;;1.00;;
7199;SDS011;3641;49.082;8.200;2023-01-13T13:07:43;5.55;;;0.90;;
7199;SDS011;3641;49.082;8.200;2023-01-13T13:10:14;8.80;;;1.05;;
7199;SDS011;3641;49.082;8.200;2023-01-13T13:12:51;10.50;;;2.08;;
7199;SDS011;3641;49.082;8.200;2023-01-13T13:15:39;7.68;;;1.30;;
7199;SDS011;3641;49.082;8.200;2023-01-13T13:18:24;10.07;;;1.48;;
7199;SDS011;3641;49.082;8.200;2023-01-13T13:20:54;4.32;;;1.42;;
7199;SDS011;3641;49.082;8.200;2023-01-13T13:23:27;6.90;;;1.40;;
7199;SDS011;3641;49.082;8.200;2023-01-13T13:26:02;7.75;;;1.30;;
7199;SDS011;3641;49.082;8.200;2023-01-13T13:28:40;7.60;;;1.38;;
7199;SDS011;3641;49.082;8.200;2023-01-13T13:31:17;8.20;;;1.60;;
7199;SDS011;3641;49.082;8.200;2023-01-13T13:33:58;6.50;;;1.48;;
7199;SDS011;3641;49.082;8.200;2023-01-13T13:36:40;7.93;;;1.20;;
7199;SDS011;3641;49.082;8.200;2023-01-13T13:39:20;10.40;;;1.42;;
7199;SDS011;3641;49.082;8.200;2023-01-13T13:42:10;9.13;;;1.67;;
7199;SDS011;3641;49.082;8.200;2023-01-13T13:44:56;7.40;;;1.55;;
7199;SDS011;3641;49.082;8.200;2023-01-13T13:47:43;7.95;;;1.10;;
7199;SDS011;3641;49.082;8.200;2023-01-13T13:50:11;10.43;;;1.30;;
7199;SDS011;3641;49.082;8.200;2023-01-13T13:52:41;11.02;;;1.38;;
7199;SDS011;3641;49.082;8.200;2023-01-13T13:55:17;9.25;;;1.30;;
7199;SDS011;3641;49.082;8.200;2023-01-13T13:57:46;6.63;;;1.10;;
7199;SDS011;3641;49.082;8.200;2023-01-13T14:00:19;8.10;;;1.20;;
7199;SDS011;3641;49.082;8.200;2023-01-13T14:02:49;5.38;;;1.20;;
7199;SDS011;3641;49.082;8.200;2023-01-13T14:05:18;10.13;;;1.65;;
7199;SDS011;3641;49.082;8.200;2023-01-13T14:07:46;7.50;;;1.50;;
7199;SDS011;3641;49.082;8.200;2023-01-13T14:10:17;7.35;;;1.55;;
7199;SDS011;3641;49.082;8.200;2023-01-13T14:12:45;8.60;;;1.15;;
7199;SDS011;3641;49.082;8.200;2023-01-13T14:15:22;9.77;;;1.50;;
7199;SDS011;3641;49.082;8.200;2023-01-13T14:17:50;11.70;;;1.80;;
7199;SDS011;3641;49.082;8.200;2023-01-13T14:20:17;9.05;;;1.65;;
7199;SDS011;3641;49.082;8.200;2023-01-13T14:22:45;8.65;;;1.52;;
7199;SDS011;3641;49.082;8.200;2023-01-13T14:25:26;10.00;;;1.77;;
7199;SDS011;3641;49.082;8.200;2023-01-13T14:27:58;6.50;;;1.23;;
7199;SDS011;3641;49.082;8.200;2023-01-13T14:30:42;8.43;;;1.50;;
7199;SDS011;3641;49.082;8.200;2023-01-13T14:36:04;10.23;;;1.80;;
7199;SDS011;3641;49.082;8.200;2023-01-13T14:38:41;9.80;;;2.30;;
7199;SDS011;3641;49.082;8.200;2023-01-13T14:41:22;8.95;;;2.20;;
7199;SDS011;3641;49.082;8.200;2023-01-13T14:43:50;10.10;;;3.17;;
7199;SDS011;3641;49.082;8.200;2023-01-13T14:46:19;9.00;;;2.03;;
7199;SDS011;3641;49.082;8.200;2023-01-13T14:48:49;14.23;;;1.60;;
7199;SDS011;3641;49.082;8.200;2023-01-13T14:51:23;8.73;;;1.58;;
7199;SDS011;3641;49.082;8.200;2023-01-13T14:53:52;13.00;;;1.77;;
7199;SDS011;3641;49.082;8.200;2023-01-13T15:07:54;5.32;;;1.30;;
7199;SDS011;3641;49.082;8.200;2023-01-13T15:10:23;11.63;;;1.83;;
7199;SDS011;3641;49.082;8.200;2023-01-13T15:12:53;9.50;;;1.77;;
7199;SDS011;3641;49.082;8.200;2023-01-13T15:15:21;8.23;;;1.45;;
7199;SDS011;3641;49.082;8.200;2023-01-13T15:17:49;8.63;;;1.80;;
7199;SDS011;3641;49.082;8.200;2023-01-13T15:20:17;11.40;;;1.80;;
7199;SDS011;3641;49.082;8.200;2023-01-13T15:22:44;10.18;;;1.70;;
7199;SDS011;3641;49.082;8.200;2023-01-13T15:25:11;15.23;;;1.70;;
7199;SDS011;3641;49.082;8.200;2023-01-13T15:27:38;11.10;;;1.88;;
7199;SDS011;3641;49.082;8.200;2023-01-13T15:30:12;9.98;;;2.08;;
7199;SDS011;3641;49.082;8.200;2023-01-13T15:32:40;9.75;;;2.00;;
7199;SDS011;3641;49.082;8.200;2023-01-13T15:35:08;14.23;;;2.05;;
7199;SDS011;3641;49.082;8.200;2023-01-13T15:37:35;8.48;;;1.65;;
7199;SDS011;3641;49.082;8.200;2023-01-13T15:40:02;9.88;;;1.40;;
7199;SDS011;3641;49.082;8.200;2023-01-13T15:42:29;12.98;;;2.03;;
7199;SDS011;3641;49.082;8.200;2023-01-13T15:45:14;9.98;;;2.50;;
7199;SDS011;3641;49.082;8.200;2023-01-13T15:47:58;9.93;;;1.60;;
7199;SDS011;3641;49.082;8.200;2023-01-13T15:50:24;7.95;;;1.77;;
7199;SDS011;3641;49.082;8.200;2023-01-13T15:52:51;9.45;;;2.10;;
7199;SDS011;3641;49.082;8.200;2023-01-13T15:55:17;8.27;;;2.38;;
7199;SDS011;3641;49.082;8.200;2023-01-13T15:57:45;9.75;;;1.98;;
7199;SDS011;3641;49.082;8.200;2023-01-13T16:00:17;8.90;;;2.35;;
7199;SDS011;3641;49.082;8.200;2023-01-13T16:02:46;15.88;;;4.22;;
7199;SDS011;3641;49.082;8.200;2023-01-13T16:05:13;10.02;;;2.90;;
7199;SDS011;3641;49.082;8.200;2023-01-13T16:07:40;11.55;;;2.70;;
7199;SDS011;3641;49.082;8.200;2023-01-13T16:10:14;10.23;;;2.53;;
7199;SDS011;3641;49.082;8.200;2023-01-13T16:12:41;9.15;;;2.05;;
7199;SDS011;3641;49.082;8.200;2023-01-13T16:15:09;9.93;;;2.67;;